Time;durP1;ratioP1;P1;durP2;ratioP2;P2;SDS_P1;SDS_P2;PMS_P1;PMS_P2;Temp;Humidity;BMP_temperature;BMP_pressure;BME280_temperature;BME280_humidity;BME280_pressure;Samples;Min_cycle;Max_cycle;Signal;HPM_P1;HPM_P2
2023/04/22 00:00:47;;;;;;;1.47;1.10;;;10.40;98.20;;;;;;4979787;28;20460;-77
2023/04/22 00:03:14;;;;;;;1.50;1.20;;;10.40;98.20;;;;;;4996537;28;20492;-78
2023/04/22 00:05:43;;;;;;;1.50;1.10;;;10.40;98.20;;;;;;4993505;28;20484;-77
2023/04/22 00:08:11;;;;;;;1.47;1.10;;;10.40;98.20;;;;;;4956709;28;20973;-77
2023/04/22 00:10:38;;;;;;;1.50;1.10;;;10.40;98.20;;;;;;4986822;28;20495;-78
2023/04/22 00:13:05;;;;;;;1.50;1.10;;;10.40;98.20;;;;;;4956580;28;20770;-77
2023/04/22 00:15:32;;;;;;;1.50;1.10;;;10.50;98.20;;;;;;4990585;28;20499;-77
2023/04/22 00:17:59;;;;;;;1.50;1.13;;;10.50;98.20;;;;;;4965660;28;20477;-77
2023/04/22 00:20:26;;;;;;;1.50;1.10;;;10.50;98.20;;;;;;4993499;28;20457;-77
2023/04/22 00:22:53;;;;;;;1.50;1.10;;;10.50;98.20;;;;;;4966076;28;20490;-75
2023/04/22 00:25:21;;;;;;;1.47;1.10;;;10.60;98.20;;;;;;4993401;28;21025;-77
2023/04/22 00:27:47;;;;;;;1.50;1.20;;;10.60;98.20;;;;;;4963804;28;20475;-77
2023/04/22 00:30:15;;;;;;;1.50;1.20;;;10.60;98.20;;;;;;4995029;28;20513;-77
2023/04/22 00:32:42;;;;;;;1.50;1.20;;;10.60;98.20;;;;;;4964509;28;20485;-77
2023/04/22 00:35:09;;;;;;;1.50;1.20;;;10.60;98.20;;;;;;4997375;28;20480;-77
2023/04/22 00:37:36;;;;;;;1.50;1.20;;;10.60;98.20;;;;;;4965946;28;20493;-77
2023/04/22 00:40:03;;;;;;;1.50;1.10;;;10.60;98.20;;;;;;4989373;28;20816;-77
2023/04/22 00:42:32;;;;;;;1.50;1.20;;;10.60;98.20;;;;;;4975636;28;20550;-77
2023/04/22 00:44:59;;;;;;;1.50;1.10;;;10.60;98.20;;;;;;4982062;28;20464;-77
2023/04/22 00:47:26;;;;;;;1.47;1.10;;;10.60;98.20;;;;;;4970366;28;20492;-77
2023/04/22 00:49:53;;;;;;;1.50;1.20;;;10.60;98.20;;;;;;4992762;28;20467;-77
2023/04/22 00:52:20;;;;;;;1.47;1.10;;;10.60;98.20;;;;;;4982985;28;20491;-77
2023/04/22 00:54:48;;;;;;;1.50;1.10;;;10.60;98.20;;;;;;4987752;28;20757;-77
2023/04/22 00:57:15;;;;;;;1.50;1.10;;;10.50;98.20;;;;;;4977337;28;20540;-78
2023/04/22 00:59:50;;;;;;;1.50;1.10;;;10.60;98.20;;;;;;4985226;28;20468;-77
2023/04/22 01:02:17;;;;;;;1.50;1.20;;;10.60;98.20;;;;;;4962743;28;21022;-77
2023/04/22 01:04:45;;;;;;;1.50;1.10;;;10.60;98.20;;;;;;4990984;28;20495;-75
2023/04/22 01:07:11;;;;;;;1.47;1.10;;;10.70;98.20;;;;;;4965351;28;20506;-77
2023/04/22 01:09:39;;;;;;;1.50;1.13;;;10.70;98.20;;;;;;4979420;28;20488;-77
2023/04/22 01:12:06;;;;;;;1.50;1.10;;;10.70;98.20;;;;;;4959632;28;20531;-77
2023/04/22 01:14:34;;;;;;;1.50;1.07;;;10.70;98.20;;;;;;4976805;28;20461;-77
2023/04/22 01:17:03;;;;;;;1.50;1.10;;;10.60;98.20;;;;;;4975784;28;20477;-77
2023/04/22 01:19:29;;;;;;;1.50;1.10;;;10.60;98.20;;;;;;4991848;28;21034;-77
2023/04/22 01:21:57;;;;;;;1.50;1.07;;;10.70;98.20;;;;;;4985696;28;20485;-77
2023/04/22 01:24:26;;;;;;;1.50;1.10;;;10.60;98.20;;;;;;4990213;28;20461;-77
2023/04/22 01:26:53;;;;;;;1.47;1.07;;;10.60;98.20;;;;;;4971800;28;20486;-77
2023/04/22 01:29:20;;;;;;;1.50;1.20;;;10.60;98.20;;;;;;4981148;28;20457;-77
2023/04/22 01:31:47;;;;;;;1.50;1.10;;;10.70;98.20;;;;;;4977784;28;20992;-77
2023/04/22 01:34:14;;;;;;;1.50;1.10;;;10.60;98.20;;;;;;5000305;28;20464;-77
2023/04/22 01:36:41;;;;;;;1.50;1.20;;;10.60;98.20;;;;;;4975403;28;20492;-76
2023/04/22 01:39:08;;;;;;;1.50;1.10;;;10.60;98.20;;;;;;4986768;28;20988;-77
2023/04/22 01:41:36;;;;;;;1.47;1.10;;;10.60;98.20;;;;;;4969606;28;20494;-76
2023/04/22 01:44:04;;;;;;;1.47;1.10;;;10.60;98.20;;;;;;4972348;28;20472;-77
2023/04/22 01:46:31;;;;;;;1.50;1.10;;;10.60;98.20;;;;;;4968671;28;20857;-77
2023/04/22 01:48:57;;;;;;;1.50;1.20;;;10.60;98.20;;;;;;4987740;28;20473;-77
2023/04/22 01:51:24;;;;;;;1.50;1.10;;;10.60;98.20;;;;;;4981196;28;20493;-77
2023/04/22 01:53:51;;;;;;;1.47;1.10;;;10.60;98.20;;;;;;4983743;28;20465;-77
2023/04/22 01:56:18;;;;;;;1.50;1.13;;;10.60;98.20;;;;;;4971235;28;20504;-77
2023/04/22 01:58:46;;;;;;;1.50;1.10;;;10.60;98.20;;;;;;4965752;28;20487;-76
2023/04/22 02:01:13;;;;;;;1.50;1.10;;;10.60;98.20;;;;;;4968265;28;20485;-76
2023/04/22 02:03:40;;;;;;;1.50;1.10;;;10.60;98.20;;;;;;4973120;28;20786;-76
2023/04/22 02:06:07;;;;;;;1.50;1.10;;;10.60;98.20;;;;;;4968418;28;20519;-77
2023/04/22 02:08:34;;;;;;;1.43;1.10;;;10.70;98.20;;;;;;4988907;28;20518;-76
2023/04/22 02:11:01;;;;;;;1.50;1.10;;;10.70;98.20;;;;;;4965371;28;21102;-77
2023/04/22 02:13:35;;;;;;;1.50;1.10;;;10.70;98.20;;;;;;4982870;28;20466;-77
2023/04/22 02:16:03;;;;;;;1.50;1.10;;;10.70;98.20;;;;;;4971240;28;20572;-76
2023/04/22 02:18:30;;;;;;;1.47;1.10;;;10.70;98.20;;;;;;4985434;28;21028;-77
2023/04/22 02:20:57;;;;;;;1.50;1.10;;;10.70;98.20;;;;;;4966909;28;20461;-76
2023/04/22 02:23:24;;;;;;;1.50;1.10;;;10.70;98.20;;;;;;4986927;28;20469;-77
2023/04/22 02:25:51;;;;;;;1.50;1.10;;;10.70;98.20;;;;;;4969139;28;20842;-77
2023/04/22 02:28:19;;;;;;;1.50;1.10;;;10.70;98.20;;;;;;4983477;28;20453;-77
2023/04/22 02:30:46;;;;;;;1.50;1.10;;;10.70;98.20;;;;;;4971372;28;20849;-77
2023/04/22 02:33:14;;;;;;;1.50;1.10;;;10.70;98.20;;;;;;4958700;28;20480;-76
2023/04/22 02:35:41;;;;;;;1.50;1.10;;;10.70;98.20;;;;;;4970417;28;20854;-76
2023/04/22 02:38:07;;;;;;;1.50;1.20;;;10.70;98.20;;;;;;4976511;28;20859;-77
2023/04/22 02:40:35;;;;;;;1.50;1.13;;;10.60;98.20;;;;;;4972690;28;20835;-77
2023/04/22 02:43:01;;;;;;;1.50;1.10;;;10.60;98.20;;;;;;4973036;28;20516;-77
2023/04/22 02:45:28;;;;;;;1.50;1.10;;;10.60;98.20;;;;;;4975062;28;21025;-76
2023/04/22 02:47:55;;;;;;;1.50;1.10;;;10.50;98.20;;;;;;4979779;28;20503;-76
2023/04/22 02:50:23;;;;;;;1.50;1.10;;;10.50;98.20;;;;;;4973651;28;20805;-77
2023/04/22 02:52:50;;;;;;;1.50;1.10;;;10.50;98.20;;;;;;4974363;28;20483;-77
2023/04/22 02:55:17;;;;;;;1.50;1.10;;;10.50;98.20;;;;;;4979911;28;20990;-76
2023/04/22 02:57:44;;;;;;;1.50;1.07;;;10.40;98.20;;;;;;4972175;28;20476;-77
2023/04/22 03:00:12;;;;;;;1.50;1.10;;;10.40;98.20;;;;;;4983621;28;20461;-77
2023/04/22 03:02:39;;;;;;;1.50;1.20;;;10.40;98.20;;;;;;4974514;28;20481;-76
2023/04/22 03:05:06;;;;;;;1.50;1.10;;;10.40;98.20;;;;;;4981308;28;20477;-76
2023/04/22 03:07:34;;;;;;;1.50;1.20;;;10.40;98.20;;;;;;4974134;28;21016;-77
2023/04/22 03:10:01;;;;;;;1.50;1.10;;;10.40;98.20;;;;;;4975582;28;20462;-77
2023/04/22 03:12:28;;;;;;;1.50;1.10;;;10.40;98.20;;;;;;4974201;28;20481;-77
2023/04/22 03:14:55;;;;;;;1.50;1.20;;;10.40;98.20;;;;;;4976356;28;20461;-76
2023/04/22 03:17:22;;;;;;;1.43;1.10;;;10.40;98.20;;;;;;4974904;28;20484;-77
2023/04/22 03:19:49;;;;;;;1.50;1.10;;;10.40;98.20;;;;;;4976482;28;20516;-76
2023/04/22 03:22:15;;;;;;;1.50;1.20;;;10.50;98.20;;;;;;4970385;28;20492;-76
2023/04/22 03:24:44;;;;;;;2.60;2.40;;;10.50;98.20;;;;;;4982708;28;20466;-76
2023/04/22 03:27:10;;;;;;;1.60;1.50;;;10.50;98.20;;;;;;4969117;28;20477;-77
2023/04/22 03:29:37;;;;;;;1.50;1.10;;;10.50;98.20;;;;;;4977854;28;20519;-76
2023/04/22 03:32:04;;;;;;;1.50;1.10;;;10.50;98.20;;;;;;4971030;28;20899;-77
2023/04/22 03:34:31;;;;;;;1.50;1.17;;;10.50;98.20;;;;;;4978319;28;20477;-77
2023/04/22 03:36:57;;;;;;;1.50;1.10;;;10.50;98.20;;;;;;4978689;28;20936;-74
2023/04/22 03:39:24;;;;;;;1.50;1.10;;;10.50;98.20;;;;;;4983063;28;20465;-76
2023/04/22 03:41:52;;;;;;;1.50;1.10;;;10.60;98.20;;;;;;4975331;28;20488;-76
2023/04/22 03:44:19;;;;;;;1.50;1.17;;;10.60;98.20;;;;;;4976686;28;20474;-77
2023/04/22 03:46:46;;;;;;;1.50;1.10;;;10.60;98.20;;;;;;4971849;28;20564;-76
2023/04/22 03:49:13;;;;;;;1.50;1.17;;;10.70;98.20;;;;;;4979885;28;20963;-76
2023/04/22 03:51:39;;;;;;;1.47;1.03;;;10.70;98.20;;;;;;4970541;28;20530;-77
2023/04/22 03:54:06;;;;;;;1.47;1.00;;;10.80;98.20;;;;;;4980572;28;20970;-77
2023/04/22 03:56:33;;;;;;;1.50;1.20;;;10.80;98.20;;;;;;4969123;28;21251;-76
2023/04/22 03:59:01;;;;;;;1.50;1.10;;;10.90;98.20;;;;;;4981263;28;20483;-76
2023/04/22 04:01:28;;;;;;;1.50;1.10;;;11.00;98.20;;;;;;4968877;28;20507;-76
2023/04/22 04:03:55;;;;;;;1.70;1.40;;;11.00;98.20;;;;;;4981795;28;20469;-76
2023/04/22 04:06:21;;;;;;;1.47;1.10;;;11.00;98.20;;;;;;4962934;28;20901;-76
2023/04/22 04:08:48;;;;;;;1.50;1.10;;;11.10;98.20;;;;;;5005177;28;20460;-76
2023/04/22 04:11:15;;;;;;;3.87;3.50;;;11.10;98.20;;;;;;4984276;28;20478;-76
2023/04/22 04:13:42;;;;;;;1.50;1.20;;;11.10;98.20;;;;;;4972849;28;20544;-76
2023/04/22 04:16:10;;;;;;;1.60;1.50;;;11.10;98.20;;;;;;4986215;28;21090;-76
2023/04/22 04:18:37;;;;;;;1.50;1.10;;;11.10;98.20;;;;;;5006689;22;20661;-75
2023/04/22 04:21:04;;;;;;;1.50;1.10;;;11.10;98.20;;;;;;5009470;28;20455;-75
2023/04/22 04:23:31;;;;;;;1.50;1.00;;;11.10;98.20;;;;;;5037243;28;20542;-75
2023/04/22 04:25:59;;;;;;;1.50;1.10;;;11.10;98.20;;;;;;5011457;28;20455;-75
2023/04/22 04:28:29;;;;;;;2.10;1.43;;;11.00;98.20;;;;;;5044103;27;20471;-75
2023/04/22 04:30:55;;;;;;;1.47;1.10;;;11.10;98.20;;;;;;5103649;27;20463;-75
2023/04/22 04:33:23;;;;;;;1.50;1.00;;;11.00;98.20;;;;;;5103689;28;20547;-75
2023/04/22 04:35:51;;;;;;;1.50;1.10;;;11.10;98.20;;;;;;5103035;27;20456;-75
2023/04/22 04:38:18;;;;;;;1.50;1.17;;;11.10;98.20;;;;;;5109009;27;20819;-75
2023/04/22 04:40:45;;;;;;;1.50;1.10;;;11.10;98.20;;;;;;5117079;27;20964;-75
2023/04/22 04:43:13;;;;;;;1.50;1.10;;;11.10;98.20;;;;;;5107361;27;20566;-75
2023/04/22 04:45:45;;;;;;;1.50;1.10;;;11.10;98.20;;;;;;5113208;27;20474;-75
2023/04/22 04:48:13;;;;;;;1.50;1.10;;;11.10;98.20;;;;;;5096071;27;20837;-75
2023/04/22 04:50:41;;;;;;;1.50;1.10;;;11.20;98.20;;;;;;5114609;27;20460;-75
2023/04/22 04:53:08;;;;;;;1.50;1.20;;;11.20;98.20;;;;;;5095868;27;20981;-76
2023/04/22 04:55:34;;;;;;;1.50;1.10;;;11.30;98.20;;;;;;5113346;27;20467;-75
2023/04/22 04:58:01;;;;;;;1.50;1.10;;;11.30;98.20;;;;;;5099641;27;20478;-76
2023/04/22 05:00:28;;;;;;;1.50;1.10;;;11.40;98.20;;;;;;5117173;27;20458;-75
2023/04/22 05:02:55;;;;;;;1.50;1.10;;;11.40;98.20;;;;;;5099844;27;20471;-74
2023/04/22 05:05:22;;;;;;;1.50;1.00;;;11.50;98.20;;;;;;5114449;27;20463;-75
2023/04/22 05:07:50;;;;;;;1.50;1.20;;;11.50;98.20;;;;;;5092181;28;21037;-74
2023/04/22 05:10:17;;;;;;;5.83;3.67;;;11.50;98.20;;;;;;5111198;27;20555;-75
2023/04/22 05:12:46;;;;;;;1.50;1.10;;;11.50;98.20;;;;;;5098291;27;20513;-75
2023/04/22 05:15:13;;;;;;;1.50;1.10;;;11.50;98.20;;;;;;5123155;27;20462;-76
2023/04/22 05:17:40;;;;;;;1.50;1.10;;;11.60;98.20;;;;;;5092816;28;20519;-76
2023/04/22 05:20:08;;;;;;;1.50;1.10;;;11.70;98.20;;;;;;5101842;27;20521;-75
2023/04/22 05:22:35;;;;;;;1.50;1.10;;;11.70;98.20;;;;;;5096692;27;20552;-76
2023/04/22 05:25:03;;;;;;;1.50;1.10;;;11.70;98.20;;;;;;5111490;27;21183;-76
2023/04/22 05:27:30;;;;;;;1.50;1.10;;;11.80;98.20;;;;;;5092862;27;20487;-75
2023/04/22 05:29:57;;;;;;;1.50;1.10;;;11.90;98.20;;;;;;5116843;27;20482;-76
2023/04/22 05:32:23;;;;;;;1.50;1.10;;;11.90;98.20;;;;;;5098486;27;20488;-76
2023/04/22 05:34:50;;;;;;;1.50;1.10;;;12.00;98.20;;;;;;5113973;27;20467;-75
2023/04/22 05:37:17;;;;;;;1.50;1.10;;;12.10;98.20;;;;;;5100783;27;20471;-75
2023/04/22 05:39:44;;;;;;;1.50;1.10;;;12.10;98.20;;;;;;5118286;27;20475;-75
2023/04/22 05:42:12;;;;;;;1.50;1.00;;;12.20;98.20;;;;;;5096957;27;20475;-75
2023/04/22 05:44:38;;;;;;;1.50;1.00;;;12.20;98.20;;;;;;5112037;27;20455;-74
2023/04/22 05:47:05;;;;;;;1.50;1.00;;;12.30;98.20;;;;;;5098410;27;20765;-75
2023/04/22 05:49:32;;;;;;;1.50;1.20;;;12.30;98.20;;;;;;5112548;27;20482;-76
2023/04/22 05:51:58;;;;;;;1.50;1.00;;;12.40;98.20;;;;;;5095800;28;20483;-76
2023/04/22 05:54:25;;;;;;;1.50;1.00;;;12.50;98.20;;;;;;5114728;28;20467;-76
2023/04/22 05:56:52;;;;;;;1.50;1.00;;;12.50;98.20;;;;;;5096837;28;20485;-77
2023/04/22 05:59:20;;;;;;;2.13;1.93;;;12.50;98.20;;;;;;5117305;28;20479;-76
2023/04/22 06:01:47;;;;;;;1.50;1.10;;;12.50;98.20;;;;;;5095039;28;20542;-76
2023/04/22 06:04:14;;;;;;;1.50;1.10;;;12.50;98.20;;;;;;5121098;28;20454;-76
2023/04/22 06:06:41;;;;;;;1.50;1.10;;;12.50;98.20;;;;;;5092600;28;20567;-77
2023/04/22 06:09:08;;;;;;;1.50;1.10;;;12.50;98.20;;;;;;5092989;28;20479;-77
2023/04/22 06:11:36;;;;;;;1.50;1.00;;;12.60;98.20;;;;;;5092817;28;20877;-76
2023/04/22 06:14:03;;;;;;;1.50;1.10;;;12.60;98.20;;;;;;5104133;28;20453;-76
2023/04/22 06:16:32;;;;;;;1.50;1.10;;;12.70;98.20;;;;;;5092155;28;20575;-76
2023/04/22 06:18:59;;;;;;;1.50;1.00;;;12.80;98.20;;;;;;5101529;28;20527;-76
2023/04/22 06:21:27;;;;;;;1.50;1.00;;;12.90;98.20;;;;;;5091012;28;20479;-75
2023/04/22 06:23:55;;;;;;;1.50;1.10;;;13.00;98.20;;;;;;5103127;28;20534;-75
2023/04/22 06:26:22;;;;;;;1.47;1.00;;;13.20;98.20;;;;;;5089589;28;20472;-75
2023/04/22 06:28:50;;;;;;;1.50;1.00;;;13.40;98.20;;;;;;5093988;28;20481;-76
2023/04/22 06:31:17;;;;;;;1.50;1.00;;;13.60;98.20;;;;;;5091164;28;20471;-76
2023/04/22 06:33:46;;;;;;;1.50;1.00;;;13.80;98.20;;;;;;5097594;28;20459;-76
2023/04/22 06:36:14;;;;;;;1.50;1.10;;;14.10;98.20;;;;;;5083846;28;20674;-76
2023/04/22 06:38:41;;;;;;;1.50;1.00;;;14.30;98.20;;;;;;5095893;28;20494;-75
2023/04/22 06:41:08;;;;;;;1.50;1.10;;;14.50;98.20;;;;;;5088543;28;20982;-76
2023/04/22 06:43:35;;;;;;;1.50;1.00;;;14.60;98.20;;;;;;5112887;28;20467;-76
2023/04/22 06:46:03;;;;;;;1.50;1.10;;;14.80;98.20;;;;;;5088861;28;20891;-75
2023/04/22 06:48:30;;;;;;;1.50;1.00;;;14.90;98.20;;;;;;5095470;28;21058;-76
2023/04/22 06:50:58;;;;;;;1.47;0.97;;;15.10;98.20;;;;;;5090651;28;20465;-75
2023/04/22 06:53:25;;;;;;;1.50;1.10;;;15.20;98.20;;;;;;5109897;28;20472;-76
2023/04/22 06:55:53;;;;;;;1.80;1.53;;;15.40;98.20;;;;;;5089363;28;20547;-76
2023/04/22 06:58:21;;;;;;;1.90;1.47;;;15.60;98.20;;;;;;5119158;27;20499;-76
2023/04/22 07:00:48;;;;;;;1.50;1.00;;;15.80;98.20;;;;;;5096323;28;20550;-76
2023/04/22 07:03:15;;;;;;;1.50;0.90;;;16.00;98.20;;;;;;5095935;28;20952;-77
2023/04/22 07:05:43;;;;;;;1.50;0.97;;;16.10;98.20;;;;;;5100100;27;20459;-76
2023/04/22 07:08:11;;;;;;;1.50;0.90;;;16.20;98.20;;;;;;5092563;27;20474;-75
2023/04/22 07:10:39;;;;;;;1.50;0.90;;;16.20;98.20;;;;;;5106416;27;20461;-76
2023/04/22 07:13:07;;;;;;;1.50;1.10;;;16.20;98.20;;;;;;5095202;27;20502;-75
2023/04/22 07:15:34;;;;;;;1.50;1.00;;;16.10;98.20;;;;;;5099655;27;20558;-75
2023/04/22 07:18:01;;;;;;;1.50;0.90;;;16.00;98.20;;;;;;5092237;27;20510;-75
2023/04/22 07:20:28;;;;;;;1.50;0.90;;;16.00;98.20;;;;;;5103728;27;20845;-77
2023/04/22 07:22:54;;;;;;;1.50;1.00;;;16.10;98.20;;;;;;5091311;27;20476;-77
2023/04/22 07:25:22;;;;;;;1.50;1.00;;;16.20;98.20;;;;;;5099121;27;20468;-76
2023/04/22 07:27:49;;;;;;;1.50;1.00;;;16.20;98.20;;;;;;5089070;27;20903;-75
2023/04/22 07:30:16;;;;;;;1.50;0.90;;;16.30;98.20;;;;;;5102370;27;20492;-75
2023/04/22 07:32:43;;;;;;;1.50;1.10;;;16.30;98.20;;;;;;5092063;27;20565;-77
2023/04/22 07:35:10;;;;;;;1.50;1.00;;;16.50;97.90;;;;;;5103219;27;20493;-77
2023/04/22 07:37:37;;;;;;;1.50;0.97;;;16.70;97.20;;;;;;5105791;27;21008;-78
2023/04/22 07:40:04;;;;;;;1.50;0.90;;;16.90;97.40;;;;;;5102627;27;20974;-75
2023/04/22 07:42:32;;;;;;;1.50;0.90;;;17.10;96.80;;;;;;5105155;27;20513;-75
2023/04/22 07:44:59;;;;;;;2.67;2.47;;;17.30;96.00;;;;;;5105229;27;20478;-76
2023/04/22 07:47:26;;;;;;;1.50;0.90;;;17.60;94.80;;;;;;5104632;27;20483;-76
2023/04/22 07:49:53;;;;;;;1.50;0.97;;;17.90;95.40;;;;;;5105125;27;20478;-77
2023/04/22 07:52:19;;;;;;;1.50;1.00;;;18.00;94.60;;;;;;5086982;27;20479;-75
2023/04/22 07:54:46;;;;;;;1.50;0.90;;;18.10;93.30;;;;;;5097870;27;20457;-74
2023/04/22 07:57:13;;;;;;;1.50;0.90;;;18.20;93.30;;;;;;5089868;27;20777;-77
2023/04/22 07:59:42;;;;;;;1.50;0.90;;;18.30;92.80;;;;;;5102218;27;20577;-76
2023/04/22 08:02:08;;;;;;;1.50;0.90;;;18.30;92.70;;;;;;5104379;27;20479;-77
2023/04/22 08:04:35;;;;;;;1.50;0.90;;;18.50;92.70;;;;;;5110155;27;20465;-76
2023/04/22 08:07:02;;;;;;;1.50;0.90;;;18.50;91.70;;;;;;5106247;27;20486;-76
2023/04/22 08:09:29;;;;;;;1.50;0.90;;;18.60;91.40;;;;;;5108600;27;20477;-76
2023/04/22 08:11:57;;;;;;;1.50;1.00;;;18.70;91.20;;;;;;5098179;27;20615;-76
2023/04/22 08:14:24;;;;;;;1.60;1.30;;;18.80;91.40;;;;;;5107307;27;20972;-77
2023/04/22 08:16:53;;;;;;;1.50;0.90;;;19.00;90.70;;;;;;5086645;27;20689;-78
2023/04/22 08:19:20;;;;;;;1.47;0.90;;;19.10;91.20;;;;;;5097727;27;20490;-76
2023/04/22 08:21:47;;;;;;;1.50;0.90;;;19.30;91.30;;;;;;5094397;27;20490;-77
2023/04/22 08:24:14;;;;;;;1.50;0.90;;;19.40;88.90;;;;;;5104971;27;20471;-77
2023/04/22 08:26:41;;;;;;;1.50;0.90;;;19.50;89.00;;;;;;5089727;28;20511;-77
2023/04/22 08:29:08;;;;;;;1.47;0.90;;;19.70;89.00;;;;;;5104331;27;20476;-75
2023/04/22 08:31:35;;;;;;;1.50;1.03;;;19.80;88.80;;;;;;5100815;27;21073;-75
2023/04/22 08:34:03;;;;;;;1.47;0.90;;;20.00;88.30;;;;;;5111739;27;20801;-75
2023/04/22 08:36:31;;;;;;;1.50;0.90;;;20.10;87.80;;;;;;5099630;27;20532;-75
2023/04/22 08:38:58;;;;;;;1.50;0.90;;;20.20;87.70;;;;;;5112060;27;20488;-74
2023/04/22 08:41:25;;;;;;;1.50;0.90;;;20.10;87.80;;;;;;5088005;28;20595;-74
2023/04/22 08:43:53;;;;;;;1.50;1.00;;;20.00;87.40;;;;;;5105065;27;20520;-76
2023/04/22 08:46:22;;;;;;;1.50;0.90;;;19.90;87.40;;;;;;5089947;27;20562;-76
2023/04/22 08:48:51;;;;;;;1.50;0.90;;;19.80;87.50;;;;;;5097480;27;20525;-76
2023/04/22 08:51:19;;;;;;;1.50;0.90;;;19.90;88.60;;;;;;5085817;27;20474;-75
2023/04/22 08:53:46;;;;;;;1.50;0.90;;;20.00;87.00;;;;;;5096169;28;20456;-75
2023/04/22 08:56:13;;;;;;;1.50;0.90;;;20.20;87.70;;;;;;5082941;27;20861;-75
2023/04/22 08:58:42;;;;;;;1.50;0.90;;;20.50;87.10;;;;;;5091871;27;20501;-75
2023/04/22 09:01:09;;;;;;;1.47;0.90;;;20.80;85.80;;;;;;5090217;27;20980;-75
2023/04/22 09:03:38;;;;;;;1.50;0.90;;;21.20;85.70;;;;;;5112098;27;20465;-75
2023/04/22 09:06:06;;;;;;;1.60;1.20;;;21.40;84.20;;;;;;5092492;27;20460;-75
2023/04/22 09:08:35;;;;;;;1.43;0.90;;;21.40;83.80;;;;;;5115033;27;20490;-75
2023/04/22 09:11:03;;;;;;;1.50;0.90;;;21.50;82.90;;;;;;5098521;27;20452;-76
2023/04/22 09:13:30;;;;;;;1.50;0.90;;;21.50;83.50;;;;;;5115740;27;20453;-75
2023/04/22 09:15:56;;;;;;;1.50;0.90;;;21.70;82.70;;;;;;5092069;27;20460;-75
2023/04/22 09:18:23;;;;;;;1.50;0.90;;;21.90;81.80;;;;;;5100854;27;20480;-75
2023/04/22 09:20:55;;;;;;;1.50;0.90;;;22.10;80.70;;;;;;5084517;27;20460;-76
2023/04/22 09:23:22;;;;;;;1.50;0.90;;;22.00;80.80;;;;;;5093562;27;20470;-75
2023/04/22 09:25:50;;;;;;;1.50;0.90;;;22.10;81.90;;;;;;5082997;28;20464;-75
2023/04/22 09:28:18;;;;;;;2.80;1.60;;;22.40;81.10;;;;;;5101942;27;21002;-75
2023/04/22 09:30:46;;;;;;;1.50;0.87;;;22.60;80.40;;;;;;5100139;27;20482;-76
2023/04/22 09:33:14;;;;;;;1.50;0.90;;;22.50;80.30;;;;;;5073667;28;20468;-75
2023/04/22 09:35:42;;;;;;;1.50;0.90;;;22.40;81.00;;;;;;5110142;27;20533;-75
2023/04/22 09:38:11;;;;;;;2.03;1.57;;;22.40;79.70;;;;;;5106342;27;20476;-74
2023/04/22 09:40:41;;;;;;;1.50;1.00;;;22.50;80.70;;;;;;5096431;28;20596;-77
2023/04/22 09:43:10;;;;;;;1.47;0.90;;;22.70;81.30;;;;;;5086934;28;20529;-76
2023/04/22 09:45:39;;;;;;;1.50;0.90;;;23.00;80.00;;;;;;5094504;28;20460;-76
2023/04/22 09:48:08;;;;;;;1.50;0.90;;;23.20;80.40;;;;;;5102197;27;20515;-76
2023/04/22 09:50:36;;;;;;;1.43;0.80;;;23.50;79.20;;;;;;5104341;28;20460;-74
2023/04/22 09:53:05;;;;;;;1.50;0.80;;;23.80;78.10;;;;;;5109459;27;20499;-75
2023/04/22 09:55:34;;;;;;;1.50;0.90;;;23.80;75.90;;;;;;5110296;27;20632;-76
2023/04/22 09:58:07;;;;;;;1.50;0.90;;;23.90;77.10;;;;;;5083042;28;20479;-76
2023/04/22 10:00:39;;;;;;;1.50;0.87;;;24.10;76.80;;;;;;5091262;28;20511;-75
2023/04/22 10:03:07;;;;;;;1.47;0.83;;;24.20;74.70;;;;;;5082163;28;20480;-74
2023/04/22 10:05:36;;;;;;;1.53;1.03;;;24.20;74.40;;;;;;5095587;28;20829;-75
2023/04/22 10:08:03;;;;;;;1.50;0.90;;;24.10;74.50;;;;;;5088402;28;20474;-75
2023/04/22 10:10:30;;;;;;;1.47;0.90;;;23.90;74.50;;;;;;5096965;28;20456;-74
2023/04/22 10:12:57;;;;;;;1.47;0.90;;;23.90;74.10;;;;;;5103842;28;20473;-76
2023/04/22 10:15:25;;;;;;;1.47;0.90;;;23.90;75.30;;;;;;5100395;28;20455;-75
2023/04/22 10:17:55;;;;;;;1.47;0.90;;;23.70;75.10;;;;;;5102161;28;20965;-75
2023/04/22 10:20:23;;;;;;;1.47;0.80;;;23.70;74.90;;;;;;5071756;23;20503;-77
2023/04/22 10:22:53;;;;;;;1.50;0.90;;;23.60;75.40;;;;;;5004330;28;20479;-76
2023/04/22 10:25:22;;;;;;;1.50;0.90;;;23.40;76.40;;;;;;4999136;28;20464;-76
2023/04/22 10:27:54;;;;;;;1.43;0.87;;;23.10;76.90;;;;;;4989738;28;20576;-77
2023/04/22 10:30:28;;;;;;;1.50;0.87;;;23.10;77.60;;;;;;5003101;28;20585;-76
2023/04/22 10:32:56;;;;;;;1.40;0.90;;;23.00;77.20;;;;;;4977164;28;20983;-74
2023/04/22 10:35:28;;;;;;;1.50;0.90;;;23.00;77.60;;;;;;5003815;28;20467;-74
2023/04/22 10:37:55;;;;;;;1.50;0.90;;;22.90;78.10;;;;;;4985411;28;21306;-77
2023/04/22 10:40:22;;;;;;;1.47;0.90;;;22.70;76.80;;;;;;4996983;28;20496;-77
2023/04/22 10:42:51;;;;;;;1.50;0.90;;;22.60;78.40;;;;;;4982623;28;20557;-76
2023/04/22 10:45:19;;;;;;;1.50;0.90;;;22.50;77.90;;;;;;5001447;28;20690;-76
2023/04/22 10:47:45;;;;;;;1.50;1.00;;;22.60;78.10;;;;;;4980433;28;21000;-73
2023/04/22 10:50:25;;;;;;;1.47;0.90;;;22.90;77.60;;;;;;5008623;28;20991;-74
2023/04/22 10:52:55;;;;;;;1.40;0.90;;;23.10;76.70;;;;;;4991783;28;20476;-73
2023/04/22 10:55:22;;;;;;;1.50;0.90;;;23.30;76.80;;;;;;5002628;28;20476;-74
2023/04/22 10:57:51;;;;;;;1.50;0.90;;;23.70;76.90;;;;;;4985176;28;21000;-73
2023/04/22 11:00:24;;;;;;;1.43;0.90;;;24.00;75.70;;;;;;5004407;28;21027;-74
2023/04/22 11:02:53;;;;;;;1.43;0.90;;;24.10;74.50;;;;;;4993572;28;20492;-73
2023/04/22 11:05:25;;;;;;;1.47;0.90;;;24.30;75.40;;;;;;5005070;28;20486;-75
2023/04/22 11:07:54;;;;;;;1.47;0.80;;;24.60;73.30;;;;;;4968905;28;20489;-75
2023/04/22 11:10:42;;;;;;;1.40;0.80;;;24.70;72.30;;;;;;5004103;28;20864;-75
2023/04/22 11:13:12;;;;;;;1.47;0.90;;;24.30;72.70;;;;;;4970214;28;20480;-74
2023/04/22 11:15:40;;;;;;;1.50;0.90;;;24.00;73.90;;;;;;5006203;28;20472;-75
2023/04/22 11:18:14;;;;;;;1.50;0.90;;;23.90;74.20;;;;;;4966962;28;20518;-75
2023/04/22 11:20:42;;;;;;;1.50;1.00;;;23.50;74.90;;;;;;5004297;28;20495;-74
2023/04/22 11:23:09;;;;;;;1.50;0.80;;;23.40;75.80;;;;;;4989727;28;20484;-75
2023/04/22 11:25:36;;;;;;;1.47;0.90;;;23.40;75.30;;;;;;5002675;28;20464;-74
2023/04/22 11:28:04;;;;;;;1.50;1.10;;;23.50;75.10;;;;;;5007987;28;20583;-74
2023/04/22 11:30:31;;;;;;;1.40;0.80;;;23.70;75.30;;;;;;5000627;28;20479;-74
2023/04/22 11:32:59;;;;;;;1.50;1.10;;;24.00;75.50;;;;;;4986885;28;20491;-74
2023/04/22 11:35:30;;;;;;;1.40;0.80;;;24.30;75.70;;;;;;5008068;28;20529;-74
2023/04/22 11:38:00;;;;;;;1.40;0.80;;;24.50;73.70;;;;;;4968301;28;20873;-74
2023/04/22 11:40:29;;;;;;;1.40;0.90;;;24.50;73.90;;;;;;5000714;28;20501;-74
2023/04/22 11:42:58;;;;;;;1.40;0.80;;;24.70;73.70;;;;;;4986320;28;20476;-74
2023/04/22 11:45:26;;;;;;;1.40;0.80;;;24.90;73.20;;;;;;5002698;28;20459;-74
2023/04/22 11:47:55;;;;;;;1.50;0.90;;;25.20;73.30;;;;;;4967489;28;20496;-74
2023/04/22 11:50:24;;;;;;;1.60;1.20;;;25.40;72.80;;;;;;5002554;28;20987;-74
2023/04/22 11:52:53;;;;;;;1.50;0.80;;;25.50;72.30;;;;;;4993336;28;20574;-74
2023/04/22 11:55:26;;;;;;;1.50;0.90;;;25.60;72.10;;;;;;4999728;28;20464;-74
2023/04/22 11:58:04;;;;;;;1.50;0.87;;;25.70;72.60;;;;;;4984008;28;20575;-74
2023/04/22 12:00:39;;;;;;;1.47;0.90;;;25.50;71.90;;;;;;5006431;28;20535;-74
2023/04/22 12:03:13;;;;;;;1.50;0.80;;;25.50;72.80;;;;;;4996304;28;20479;-75
2023/04/22 12:05:43;;;;;;;1.47;0.80;;;25.50;71.60;;;;;;4994652;28;22360;-75
2023/04/22 12:08:12;;;;;;;1.50;1.10;;;25.60;71.50;;;;;;4969768;28;20574;-75
2023/04/22 12:10:42;;;;;;;1.43;0.90;;;25.70;72.70;;;;;;5000059;28;20502;-76
2023/04/22 12:13:11;;;;;;;1.47;0.80;;;25.80;71.20;;;;;;4987873;28;20479;-75
2023/04/22 12:15:41;;;;;;;1.47;0.90;;;25.90;71.10;;;;;;5000829;28;20467;-76
2023/04/22 12:18:08;;;;;;;1.43;0.90;;;25.90;71.30;;;;;;4968398;28;20479;-75
2023/04/22 12:20:36;;;;;;;1.47;0.80;;;25.70;70.90;;;;;;4999549;28;20495;-75
2023/04/22 12:23:04;;;;;;;1.43;0.80;;;25.50;73.00;;;;;;4983187;28;20515;-75
2023/04/22 12:25:32;;;;;;;1.43;0.80;;;25.70;72.20;;;;;;5002174;28;20471;-74
2023/04/22 12:28:01;;;;;;;1.47;0.90;;;25.30;72.90;;;;;;5005035;28;20488;-74
2023/04/22 12:30:28;;;;;;;1.43;0.80;;;25.30;73.70;;;;;;5002629;28;20494;-75
2023/04/22 12:32:55;;;;;;;1.40;0.90;;;25.30;72.50;;;;;;4966335;28;20500;-75
2023/04/22 12:35:22;;;;;;;1.47;0.80;;;25.10;73.70;;;;;;4998287;28;20915;-75
2023/04/22 12:37:50;;;;;;;1.67;1.23;;;25.00;74.20;;;;;;4984427;28;21011;-74
2023/04/22 12:40:17;;;;;;;1.40;0.80;;;24.80;74.60;;;;;;4999235;28;21094;-75
2023/04/22 12:42:44;;;;;;;1.90;1.57;;;24.60;74.10;;;;;;4981631;28;20488;-75
2023/04/22 12:45:13;;;;;;;1.47;0.80;;;24.70;74.30;;;;;;5007835;28;20467;-74
2023/04/22 12:47:40;;;;;;;1.47;0.80;;;24.70;74.20;;;;;;5001073;28;20487;-75
2023/04/22 12:50:08;;;;;;;1.40;0.80;;;24.60;74.50;;;;;;5007565;28;20548;-75